Time;durP1;ratioP1;P1;durP2;ratioP2;P2;SDS_P1;SDS_P2;PMS_P1;PMS_P2;Temp;Humidity;BMP_temperature;BMP_pressure;BME280_temperature;BME280_humidity;BME280_pressure;Samples;Min_cycle;Max_cycle;Signal;HPM_P1;HPM_P2
2021/06/13 00:01:58;;;;;;;6.80;3.97;;;17.60;99.90;;;;;;5034091;28;20500;-61
2021/06/13 00:04:24;;;;;;;4.77;4.00;;;17.60;99.90;;;;;;5033753;28;20764;-62
2021/06/13 00:06:53;;;;;;;6.00;3.87;;;17.60;99.90;;;;;;5033735;28;20264;-61
2021/06/13 00:09:22;;;;;;;3.00;2.60;;;17.50;99.90;;;;;;5033703;28;20182;-61
2021/06/13 00:11:49;;;;;;;4.23;3.83;;;17.60;99.90;;;;;;5033648;28;20412;-61
2021/06/13 00:14:15;;;;;;;5.07;4.17;;;17.60;99.90;;;;;;5033814;28;20447;-61
2021/06/13 00:16:40;;;;;;;6.23;4.77;;;17.50;99.90;;;;;;5033149;28;20914;-61
2021/06/13 00:19:06;;;;;;;5.10;4.07;;;17.60;99.90;;;;;;5033420;28;20441;-61
2021/06/13 00:21:32;;;;;;;4.90;4.40;;;17.60;99.90;;;;;;5033698;28;20225;-61
2021/06/13 00:23:58;;;;;;;5.43;4.10;;;17.60;99.90;;;;;;5033688;28;20189;-61
2021/06/13 00:26:23;;;;;;;5.87;5.20;;;17.60;99.90;;;;;;5033207;28;20558;-61
2021/06/13 00:28:49;;;;;;;4.57;4.13;;;17.60;99.90;;;;;;5033480;28;20186;-61
2021/06/13 00:31:14;;;;;;;5.00;4.30;;;17.70;99.90;;;;;;5033702;28;20166;-61
2021/06/13 00:33:40;;;;;;;4.40;4.00;;;17.70;99.90;;;;;;5033052;28;20636;-61
2021/06/13 00:36:06;;;;;;;3.63;3.23;;;17.70;99.90;;;;;;5031665;28;20174;-62
2021/06/13 00:38:32;;;;;;;4.50;3.67;;;17.70;99.90;;;;;;5033175;28;20798;-61
2021/06/13 00:40:58;;;;;;;5.70;4.00;;;17.70;99.90;;;;;;5033516;28;20504;-61
2021/06/13 00:43:23;;;;;;;5.10;4.07;;;17.80;99.90;;;;;;5033255;28;20170;-61
2021/06/13 00:45:49;;;;;;;6.77;4.60;;;17.80;99.90;;;;;;5033508;28;20269;-61
2021/06/13 00:48:15;;;;;;;5.40;4.90;;;17.80;99.90;;;;;;5032619;28;20747;-61
2021/06/13 00:50:50;;;;;;;6.70;4.17;;;17.80;99.90;;;;;;5033496;28;20184;-61
2021/06/13 00:53:16;;;;;;;6.47;4.87;;;17.90;99.90;;;;;;5033225;28;20225;-61
2021/06/13 00:55:42;;;;;;;4.93;4.43;;;17.90;99.90;;;;;;5033366;28;20413;-61
2021/06/13 00:58:09;;;;;;;4.50;4.10;;;17.90;99.90;;;;;;5033022;28;20641;-61
2021/06/13 01:00:36;;;;;;;5.87;3.90;;;17.90;99.90;;;;;;5032997;28;20421;-61
2021/06/13 01:03:02;;;;;;;4.77;3.60;;;17.90;99.90;;;;;;5033261;28;20448;-61
2021/06/13 01:05:29;;;;;;;3.80;3.50;;;17.90;99.90;;;;;;5033142;28;20927;-61
2021/06/13 01:07:58;;;;;;;3.87;3.40;;;17.90;99.90;;;;;;5032529;28;20461;-61
2021/06/13 01:10:34;;;;;;;5.67;3.90;;;17.90;99.90;;;;;;5015069;28;20429;-61
2021/06/13 01:13:25;;;;;;;5.47;4.67;;;17.80;99.90;;;;;;5033234;28;20398;-61
2021/06/13 01:16:04;;;;;;;4.20;3.80;;;17.80;99.90;;;;;;5033148;28;20416;-62
2021/06/13 01:18:36;;;;;;;4.20;3.80;;;17.80;99.90;;;;;;5033044;28;20424;-62
2021/06/13 01:21:24;;;;;;;5.27;4.63;;;17.80;99.90;;;;;;5033105;28;20901;-59
2021/06/13 01:24:17;;;;;;;3.53;3.23;;;17.80;99.90;;;;;;5032916;28;20487;-60
2021/06/13 01:27:15;;;;;;;6.43;4.67;;;17.80;99.90;;;;;;5032603;28;20445;-59
2021/06/13 01:29:46;;;;;;;5.90;4.50;;;17.80;99.90;;;;;;5031436;28;20457;-59
2021/06/13 01:32:29;;;;;;;5.80;4.37;;;17.80;99.90;;;;;;5033035;28;20792;-60
2021/06/13 01:35:03;;;;;;;4.87;4.20;;;17.80;99.90;;;;;;5032974;28;20401;-61
2021/06/13 01:37:32;;;;;;;4.93;4.53;;;17.80;99.90;;;;;;5031958;28;20440;-61
2021/06/13 01:40:04;;;;;;;5.00;4.27;;;17.80;99.90;;;;;;5032588;28;20452;-62
2021/06/13 01:42:32;;;;;;;5.73;4.73;;;17.80;99.90;;;;;;5031640;28;20418;-62
2021/06/13 01:45:00;;;;;;;5.80;4.23;;;17.80;99.90;;;;;;5032841;28;20412;-61
2021/06/13 01:47:27;;;;;;;4.43;4.03;;;17.80;99.90;;;;;;5032374;28;20451;-62
2021/06/13 01:49:54;;;;;;;5.20;4.53;;;17.90;99.90;;;;;;5032723;28;20421;-61
2021/06/13 01:52:21;;;;;;;4.50;4.10;;;17.80;99.90;;;;;;5036035;28;20929;-62
2021/06/13 01:54:49;;;;;;;4.37;3.93;;;17.80;99.90;;;;;;5036111;28;20899;-61
2021/06/13 01:57:15;;;;;;;3.90;3.60;;;17.80;99.90;;;;;;5035995;28;20420;-62
2021/06/13 01:59:43;;;;;;;4.50;3.77;;;17.80;99.90;;;;;;5036124;28;20433;-62
2021/06/13 02:02:12;;;;;;;5.20;4.00;;;17.80;99.90;;;;;;5036462;28;20805;-62
2021/06/13 02:04:39;;;;;;;5.10;3.63;;;17.80;99.90;;;;;;5036231;28;20404;-62
2021/06/13 02:07:06;;;;;;;4.87;3.20;;;17.80;99.90;;;;;;5035561;28;20547;-62
2021/06/13 02:09:33;;;;;;;4.43;4.00;;;17.80;99.90;;;;;;5035997;28;20427;-62
2021/06/13 02:12:01;;;;;;;4.30;2.83;;;17.80;99.90;;;;;;5035954;28;20494;-62
2021/06/13 02:14:29;;;;;;;4.53;4.13;;;17.80;99.90;;;;;;5036116;28;20398;-62
2021/06/13 02:16:56;;;;;;;3.40;3.17;;;17.90;99.90;;;;;;5035600;28;20543;-61
2021/06/13 02:19:23;;;;;;;6.33;4.40;;;17.90;99.90;;;;;;5035781;28;20567;-61
2021/06/13 02:21:55;;;;;;;4.47;4.00;;;17.80;99.90;;;;;;5035893;28;20779;-61
2021/06/13 02:24:26;;;;;;;7.53;3.80;;;17.90;99.90;;;;;;5036058;28;20393;-62
2021/06/13 02:26:52;;;;;;;3.97;3.00;;;17.80;99.90;;;;;;5035777;28;20878;-62
2021/06/13 02:29:18;;;;;;;5.40;3.67;;;17.80;99.90;;;;;;5035397;28;20564;-62
2021/06/13 02:31:47;;;;;;;3.70;3.40;;;17.90;99.90;;;;;;5035825;28;20201;-61
2021/06/13 02:34:18;;;;;;;8.37;3.40;;;17.90;99.90;;;;;;5035745;28;20441;-62
2021/06/13 02:36:46;;;;;;;3.80;3.40;;;17.90;99.90;;;;;;5034926;28;20431;-62
2021/06/13 02:39:12;;;;;;;3.77;3.10;;;17.80;99.90;;;;;;5035636;28;20513;-62
2021/06/13 02:41:37;;;;;;;4.27;3.10;;;17.90;99.90;;;;;;5035717;28;20962;-62
2021/06/13 02:44:04;;;;;;;4.87;4.10;;;17.80;99.90;;;;;;5035624;28;20175;-62
2021/06/13 02:46:29;;;;;;;4.60;3.80;;;17.90;99.90;;;;;;5035213;28;20444;-62
2021/06/13 02:48:55;;;;;;;5.30;4.00;;;17.90;99.90;;;;;;5035376;28;20432;-62
2021/06/13 02:51:27;;;;;;;3.70;3.40;;;17.90;99.90;;;;;;5032335;28;20233;-61
2021/06/13 02:53:56;;;;;;;3.30;2.90;;;17.90;99.90;;;;;;5035521;28;20170;-62
2021/06/13 02:56:36;;;;;;;5.37;3.93;;;17.90;99.90;;;;;;5034921;28;20399;-62
2021/06/13 02:59:40;;;;;;;3.30;3.10;;;17.90;99.90;;;;;;5035446;28;20432;-62
2021/06/13 03:02:11;;;;;;;7.43;4.67;;;17.80;99.90;;;;;;5034566;28;20409;-61
2021/06/13 03:04:40;;;;;;;8.00;4.20;;;17.70;99.90;;;;;;5034602;28;20506;-63
2021/06/13 03:07:06;;;;;;;5.10;4.03;;;17.70;99.90;;;;;;5034379;28;20453;-61
2021/06/13 03:09:34;;;;;;;4.00;3.60;;;17.70;99.90;;;;;;5035083;28;20428;-62
2021/06/13 03:12:01;;;;;;;5.40;3.87;;;17.60;99.90;;;;;;5034807;28;20902;-62
2021/06/13 03:14:30;;;;;;;4.40;4.00;;;17.60;99.90;;;;;;5034946;28;20412;-62
2021/06/13 03:16:57;;;;;;;4.90;4.40;;;17.50;99.90;;;;;;5034626;28;20401;-62
2021/06/13 03:19:25;;;;;;;3.90;3.53;;;17.50;99.90;;;;;;5033574;28;20520;-61
2021/06/13 03:21:52;;;;;;;5.00;4.50;;;17.40;99.90;;;;;;5034536;28;20453;-62
2021/06/13 03:24:22;;;;;;;5.40;4.30;;;17.40;99.90;;;;;;5034966;28;20389;-62
2021/06/13 03:26:51;;;;;;;7.13;4.47;;;17.40;99.90;;;;;;5034227;28;20461;-62
2021/06/13 03:29:18;;;;;;;6.23;3.83;;;17.40;99.90;;;;;;5034487;28;20966;-62
2021/06/13 03:31:44;;;;;;;5.60;5.10;;;17.40;99.90;;;;;;5034497;28;20771;-62
2021/06/13 03:34:10;;;;;;;5.30;4.60;;;17.40;99.90;;;;;;5034599;28;20403;-60
2021/06/13 03:36:37;;;;;;;5.80;4.03;;;17.40;99.90;;;;;;5034276;28;20759;-59
2021/06/13 03:39:04;;;;;;;5.90;4.10;;;17.40;99.90;;;;;;5016417;28;20963;-60
2021/06/13 03:41:30;;;;;;;3.87;3.53;;;17.40;99.90;;;;;;5034306;28;20795;-62
2021/06/13 03:43:57;;;;;;;4.27;3.87;;;17.50;99.90;;;;;;5016177;28;20469;-62
2021/06/13 03:46:23;;;;;;;5.40;4.50;;;17.60;99.90;;;;;;5033618;28;20416;-61
2021/06/13 03:48:52;;;;;;;3.60;3.30;;;17.70;99.90;;;;;;5034227;28;20444;-62
2021/06/13 03:51:19;;;;;;;5.00;4.60;;;17.60;99.90;;;;;;5034277;28;20463;-62
2021/06/13 03:53:53;;;;;;;4.40;3.50;;;17.60;99.90;;;;;;5033975;28;20509;-62
2021/06/13 03:56:25;;;;;;;6.03;4.47;;;17.70;99.90;;;;;;5033877;28;20396;-62
2021/06/13 03:58:52;;;;;;;4.43;4.03;;;17.70;99.90;;;;;;5034076;28;20434;-62
2021/06/13 04:01:21;;;;;;;5.77;3.90;;;17.70;99.90;;;;;;5034136;28;20410;-61
2021/06/13 04:03:51;;;;;;;5.40;4.27;;;17.60;99.90;;;;;;5020424;28;20775;-61
2021/06/13 04:06:22;;;;;;;4.50;3.77;;;17.70;99.90;;;;;;5033729;28;20401;-62
2021/06/13 04:08:49;;;;;;;3.53;3.23;;;17.60;99.90;;;;;;5034085;28;20420;-62
2021/06/13 04:11:17;;;;;;;5.07;4.57;;;17.70;99.90;;;;;;5034091;28;20458;-61
2021/06/13 04:13:44;;;;;;;5.40;3.30;;;17.70;99.90;;;;;;5033531;28;20440;-62
2021/06/13 04:16:10;;;;;;;4.80;3.30;;;17.80;99.90;;;;;;5033612;28;20402;-62
2021/06/13 04:18:37;;;;;;;4.73;3.53;;;17.90;99.90;;;;;;5033200;28;20489;-63
2021/06/13 04:21:09;;;;;;;4.10;3.70;;;18.10;99.90;;;;;;5033348;28;20773;-62
2021/06/13 04:23:36;;;;;;;5.10;3.63;;;18.40;99.90;;;;;;5033882;28;20879;-62
2021/06/13 04:26:02;;;;;;;3.90;3.60;;;18.60;99.90;;;;;;5033633;28;20491;-61
2021/06/13 04:28:29;;;;;;;3.50;3.20;;;19.00;99.90;;;;;;5033275;28;20493;-61
2021/06/13 04:31:04;;;;;;;3.17;2.83;;;19.40;99.90;;;;;;5015724;28;20517;-59
2021/06/13 04:33:31;;;;;;;5.37;4.60;;;19.60;99.90;;;;;;5033178;28;20466;-59
2021/06/13 04:35:57;;;;;;;3.73;3.43;;;19.80;99.90;;;;;;5033426;28;20539;-59
2021/06/13 04:38:22;;;;;;;3.70;3.40;;;19.90;99.90;;;;;;5032981;28;20413;-62
2021/06/13 04:40:48;;;;;;;5.53;3.93;;;20.10;99.90;;;;;;5033526;28;20408;-61
2021/06/13 04:43:14;;;;;;;3.50;3.20;;;20.10;99.90;;;;;;5033552;28;20264;-61
2021/06/13 04:45:40;;;;;;;4.17;3.77;;;20.00;99.90;;;;;;5033665;28;20536;-62
2021/06/13 04:48:07;;;;;;;4.37;3.97;;;19.70;99.90;;;;;;5032623;28;20248;-61
2021/06/13 04:50:39;;;;;;;3.70;3.40;;;19.50;99.90;;;;;;5033231;28;20197;-61
2021/06/13 04:53:15;;;;;;;3.20;2.90;;;19.30;99.90;;;;;;5033519;28;20409;-61
2021/06/13 04:55:49;;;;;;;3.73;2.83;;;19.10;99.90;;;;;;5033255;28;20401;-60
2021/06/13 04:58:26;;;;;;;2.87;2.67;;;19.10;99.90;;;;;;5032909;28;20422;-60
2021/06/13 05:00:52;;;;;;;3.80;3.50;;;19.00;99.90;;;;;;5033125;28;20424;-60
2021/06/13 05:03:19;;;;;;;5.10;3.97;;;19.00;99.90;;;;;;5013505;28;20418;-60
2021/06/13 05:05:44;;;;;;;4.10;3.43;;;19.00;99.90;;;;;;5013474;28;20417;-60
2021/06/13 05:08:10;;;;;;;3.70;3.20;;;18.90;99.90;;;;;;5013084;28;20450;-62
2021/06/13 05:10:36;;;;;;;3.37;3.10;;;18.80;99.90;;;;;;5017556;28;20178;-62
2021/06/13 05:13:11;;;;;;;3.77;3.47;;;18.80;99.90;;;;;;5033184;28;20174;-61
2021/06/13 05:15:37;;;;;;;4.40;3.47;;;18.60;99.90;;;;;;5033299;28;20390;-61
2021/06/13 05:18:03;;;;;;;2.90;2.70;;;18.60;99.90;;;;;;5032822;28;20767;-60
2021/06/13 05:20:28;;;;;;;3.97;2.93;;;18.50;99.90;;;;;;5032841;28;20194;-60
2021/06/13 05:22:55;;;;;;;4.30;3.37;;;18.50;99.90;;;;;;5033151;28;20171;-60
2021/06/13 05:25:22;;;;;;;3.07;2.77;;;18.40;99.90;;;;;;5033594;28;20262;-61
2021/06/13 05:27:48;;;;;;;3.33;3.03;;;18.50;99.90;;;;;;5036562;28;20495;-61
2021/06/13 05:30:14;;;;;;;4.87;3.60;;;18.50;99.90;;;;;;5036640;28;20455;-61
2021/06/13 05:32:40;;;;;;;4.50;3.37;;;18.60;99.90;;;;;;5036958;28;20265;-61
2021/06/13 05:35:06;;;;;;;5.17;3.13;;;18.80;99.90;;;;;;5036826;28;20407;-61
2021/06/13 05:37:32;;;;;;;4.37;3.50;;;18.90;99.90;;;;;;5035864;28;20209;-60
2021/06/13 05:39:57;;;;;;;3.80;3.43;;;18.90;99.90;;;;;;5036343;28;20888;-60
2021/06/13 05:42:23;;;;;;;4.90;2.90;;;18.90;99.90;;;;;;5036749;28;20181;-60
2021/06/13 05:44:48;;;;;;;3.60;3.30;;;19.10;99.90;;;;;;5036407;28;20178;-60
2021/06/13 05:47:14;;;;;;;3.10;2.90;;;19.30;99.90;;;;;;5036163;28;20213;-60
2021/06/13 05:49:40;;;;;;;2.83;2.30;;;19.60;99.90;;;;;;5036655;28;20194;-60
2021/06/13 05:52:06;;;;;;;2.97;2.57;;;19.90;99.80;;;;;;5036306;28;20224;-60
2021/06/13 05:54:33;;;;;;;2.73;2.53;;;20.20;99.90;;;;;;5036484;28;20599;-60
2021/06/13 05:56:59;;;;;;;2.47;2.27;;;20.50;99.40;;;;;;5036050;28;20416;-60
2021/06/13 05:59:25;;;;;;;1.83;1.73;;;20.90;98.90;;;;;;5036521;28;20425;-61
2021/06/13 06:01:50;;;;;;;2.30;2.10;;;21.20;98.30;;;;;;5036341;28;20648;-61
2021/06/13 06:04:16;;;;;;;3.63;3.33;;;21.10;97.60;;;;;;5032691;28;20186;-61
2021/06/13 06:06:41;;;;;;;3.20;2.50;;;21.00;98.10;;;;;;5035811;28;20667;-61
2021/06/13 06:09:07;;;;;;;3.00;2.67;;;20.80;97.70;;;;;;5036113;28;20198;-62
2021/06/13 06:11:35;;;;;;;2.50;2.30;;;20.60;97.40;;;;;;5036040;28;20177;-61
2021/06/13 06:14:00;;;;;;;3.50;3.27;;;20.40;97.60;;;;;;5035929;28;20265;-60
2021/06/13 06:16:26;;;;;;;3.73;3.37;;;20.30;97.90;;;;;;5035362;28;20867;-60
2021/06/13 06:18:52;;;;;;;4.90;3.47;;;20.20;98.30;;;;;;5035478;28;20186;-60
2021/06/13 06:21:17;;;;;;;3.23;2.87;;;20.00;99.20;;;;;;5036084;28;20412;-60
2021/06/13 06:23:43;;;;;;;3.50;3.20;;;19.80;98.80;;;;;;5035921;28;20254;-60
2021/06/13 06:26:08;;;;;;;3.43;3.13;;;19.80;99.80;;;;;;5036034;28;20170;-62
2021/06/13 06:28:34;;;;;;;2.70;2.50;;;19.70;99.70;;;;;;5035161;28;20239;-62
2021/06/13 06:31:00;;;;;;;6.60;2.30;;;19.80;99.90;;;;;;5036293;28;20588;-60
2021/06/13 06:33:30;;;;;;;4.40;2.50;;;19.80;99.90;;;;;;5035838;28;20240;-61
2021/06/13 06:38:32;;;;;;;2.63;2.43;;;19.90;99.10;;;;;;5271971;22;20480;-67
2021/06/13 06:40:58;;;;;;;3.93;3.53;;;19.90;99.20;;;;;;5035720;28;20413;-67
2021/06/13 06:43:25;;;;;;;3.87;3.50;;;19.90;99.40;;;;;;5035545;28;20408;-65
2021/06/13 06:45:50;;;;;;;4.77;3.40;;;19.80;99.10;;;;;;5035346;28;20409;-66
2021/06/13 06:48:16;;;;;;;4.00;3.70;;;19.60;99.70;;;;;;5035401;28;20815;-66
2021/06/13 06:50:42;;;;;;;3.13;2.83;;;19.40;99.90;;;;;;5035531;28;20170;-67
2021/06/13 06:53:09;;;;;;;4.67;3.40;;;19.40;99.90;;;;;;5030323;28;20815;-67
2021/06/13 06:55:35;;;;;;;3.23;2.70;;;19.50;99.80;;;;;;5014905;28;20962;-68
2021/06/13 06:58:01;;;;;;;3.03;2.60;;;19.60;99.50;;;;;;5015159;28;20433;-67
2021/06/13 07:00:26;;;;;;;4.80;3.13;;;19.60;99.30;;;;;;5015047;28;20402;-66
2021/06/13 07:02:52;;;;;;;3.40;2.43;;;19.60;99.30;;;;;;5015332;28;20417;-67
2021/06/13 07:05:18;;;;;;;8.20;3.30;;;19.70;99.90;;;;;;5015149;28;20295;-66
2021/06/13 07:07:44;;;;;;;3.23;3.03;;;19.70;99.90;;;;;;5013345;28;20207;-70
2021/06/13 07:10:11;;;;;;;2.87;2.50;;;19.80;99.40;;;;;;5015247;28;20484;-68
2021/06/13 07:12:37;;;;;;;3.20;2.80;;;19.90;99.90;;;;;;4997762;28;20666;-67
2021/06/13 07:15:04;;;;;;;3.90;3.50;;;20.00;99.90;;;;;;5017042;28;20435;-67
2021/06/13 07:17:30;;;;;;;2.87;2.67;;;20.10;99.80;;;;;;5028259;28;20195;-68
2021/06/13 07:19:55;;;;;;;2.57;2.40;;;20.30;99.30;;;;;;5032718;28;20413;-68
2021/06/13 07:22:22;;;;;;;2.93;2.63;;;20.60;98.70;;;;;;5033205;28;20249;-68
2021/06/13 07:24:48;;;;;;;5.83;3.00;;;21.00;98.40;;;;;;5033268;28;20256;-64
2021/06/13 07:27:14;;;;;;;5.13;3.00;;;21.30;96.80;;;;;;5033034;28;20498;-66
2021/06/13 07:29:39;;;;;;;3.60;2.53;;;21.70;96.60;;;;;;5034743;28;20165;-65
2021/06/13 07:32:05;;;;;;;3.20;2.90;;;22.50;95.50;;;;;;5033659;28;20636;-66
2021/06/13 07:34:31;;;;;;;3.07;2.77;;;23.30;94.80;;;;;;5034202;28;20168;-66
2021/06/13 07:36:57;;;;;;;2.77;2.57;;;24.20;95.00;;;;;;5033452;28;20236;-65
2021/06/13 07:39:23;;;;;;;3.03;2.83;;;25.00;92.50;;;;;;5015462;28;20255;-66
2021/06/13 07:41:50;;;;;;;3.47;2.80;;;25.70;90.20;;;;;;5014915;28;20957;-65
2021/06/13 07:44:17;;;;;;;2.53;2.33;;;26.10;89.20;;;;;;5016359;28;20182;-67
2021/06/13 07:46:43;;;;;;;2.63;2.43;;;26.80;87.60;;;;;;5033555;28;20438;-66
2021/06/13 07:49:08;;;;;;;3.90;3.60;;;28.00;84.20;;;;;;5032869;28;20413;-63
2021/06/13 07:51:34;;;;;;;3.17;2.97;;;28.80;81.00;;;;;;5033752;28;20174;-63
2021/06/13 07:54:00;;;;;;;3.50;2.70;;;29.60;77.40;;;;;;5032806;28;20174;-67
2021/06/13 07:56:25;;;;;;;2.90;2.70;;;30.80;72.80;;;;;;5033235;28;20265;-67
2021/06/13 07:58:51;;;;;;;3.73;2.73;;;31.60;67.40;;;;;;5016896;28;20214;-67
2021/06/13 08:01:17;;;;;;;2.17;2.07;;;32.20;65.40;;;;;;5014201;28;20175;-66
2021/06/13 08:03:42;;;;;;;3.07;2.87;;;32.40;64.30;;;;;;5014091;28;20182;-66
2021/06/13 08:06:08;;;;;;;5.07;3.13;;;32.10;59.50;;;;;;5013770;28;20175;-66
2021/06/13 08:08:34;;;;;;;2.90;2.70;;;31.90;59.00;;;;;;5013627;28;20202;-66
2021/06/13 08:11:00;;;;;;;2.97;2.57;;;31.70;61.00;;;;;;5013924;28;20175;-66
2021/06/13 08:13:26;;;;;;;2.90;2.70;;;31.00;60.80;;;;;;5013881;28;20178;-65
2021/06/13 08:15:52;;;;;;;3.20;2.90;;;31.30;61.70;;;;;;5013396;28;21132;-66
2021/06/13 08:18:18;;;;;;;2.63;2.43;;;31.90;59.70;;;;;;5013369;28;20194;-65
2021/06/13 08:20:44;;;;;;;3.30;3.10;;;32.50;59.70;;;;;;5013675;28;20924;-67
2021/06/13 08:23:10;;;;;;;3.30;3.10;;;32.40;57.80;;;;;;5017036;28;20633;-64
2021/06/13 08:25:36;;;;;;;3.80;3.20;;;31.40;59.60;;;;;;5029423;28;20178;-64
2021/06/13 08:28:02;;;;;;;3.10;2.90;;;30.80;59.40;;;;;;5013521;28;20453;-64
2021/06/13 08:30:28;;;;;;;2.83;2.63;;;31.30;58.80;;;;;;5013831;28;20175;-64
2021/06/13 08:32:54;;;;;;;2.73;2.53;;;31.90;57.10;;;;;;5013893;28;20225;-63
2021/06/13 08:35:20;;;;;;;3.27;2.50;;;32.50;56.60;;;;;;5013825;28;20167;-63
2021/06/13 08:37:46;;;;;;;2.70;2.50;;;33.30;56.10;;;;;;5013143;28;20430;-63
2021/06/13 08:40:13;;;;;;;2.57;2.37;;;33.60;55.90;;;;;;5013382;28;20191;-63
2021/06/13 08:42:40;;;;;;;2.83;2.63;;;33.70;54.70;;;;;;5024629;28;20174;-64
2021/06/13 08:45:09;;;;;;;3.00;2.80;;;33.90;54.80;;;;;;5023905;28;20413;-63
2021/06/13 08:47:35;;;;;;;3.07;2.87;;;34.10;53.70;;;;;;5027616;28;20464;-62
2021/06/13 08:50:00;;;;;;;3.27;3.07;;;33.90;54.60;;;;;;5015081;28;20480;-62
2021/06/13 08:52:26;;;;;;;3.57;3.30;;;34.30;53.30;;;;;;5015254;28;20444;-62
2021/06/13 08:54:52;;;;;;;3.33;3.13;;;34.10;53.80;;;;;;5033198;28;20205;-63
2021/06/13 08:57:18;;;;;;;3.20;3.00;;;33.80;52.80;;;;;;5032926;28;20290;-62
2021/06/13 08:59:45;;;;;;;2.70;2.50;;;33.50;54.00;;;;;;5034675;28;20170;-62
2021/06/13 09:02:11;;;;;;;2.67;2.57;;;33.80;54.40;;;;;;5037327;28;20204;-61
2021/06/13 09:04:37;;;;;;;3.23;3.07;;;33.90;53.40;;;;;;5037309;28;20504;-62
2021/06/13 09:07:23;;;;;;;2.93;2.73;;;34.00;52.10;;;;;;5036770;28;20198;-61
2021/06/13 09:09:50;;;;;;;3.20;3.03;;;33.40;51.90;;;;;;5037095;28;20416;-64
2021/06/13 09:12:15;;;;;;;3.20;3.00;;;32.90;52.90;;;;;;5019659;28;20807;-62
2021/06/13 09:14:44;;;;;;;3.10;2.90;;;32.70;53.70;;;;;;5017221;28;20404;-62
2021/06/13 09:17:26;;;;;;;2.30;2.20;;;33.10;55.00;;;;;;5016685;28;20289;-62
2021/06/13 09:20:09;;;;;;;2.30;2.20;;;33.00;53.80;;;;;;5017408;28;20405;-62
2021/06/13 09:22:37;;;;;;;2.90;2.70;;;33.10;52.70;;;;;;5017205;28;20409;-63
2021/06/13 09:25:10;;;;;;;2.67;2.47;;;33.10;55.10;;;;;;5017113;28;20405;-66
2021/06/13 09:27:37;;;;;;;3.13;2.93;;;33.50;54.20;;;;;;5016507;28;20412;-64
2021/06/13 09:30:04;;;;;;;2.80;2.60;;;33.80;53.30;;;;;;5016999;28;20421;-66
2021/06/13 09:32:30;;;;;;;2.40;2.30;;;34.40;53.00;;;;;;4999331;28;20507;-65
2021/06/13 09:35:19;;;;;;;3.10;2.90;;;35.00;51.80;;;;;;5016748;28;20437;-65
2021/06/13 09:38:12;;;;;;;2.57;2.47;;;35.30;48.50;;;;;;5016100;28;20247;-66
2021/06/13 09:40:39;;;;;;;3.20;3.00;;;35.20;48.20;;;;;;5033082;28;20423;-65
2021/06/13 09:43:24;;;;;;;2.90;2.70;;;35.20;49.00;;;;;;5036450;28;20937;-62
2021/06/13 09:46:02;;;;;;;2.83;2.63;;;35.00;48.70;;;;;;5036219;28;20416;-62
2021/06/13 09:48:28;;;;;;;3.10;2.70;;;34.60;48.30;;;;;;5035935;28;20482;-67
2021/06/13 09:50:57;;;;;;;2.70;2.60;;;34.50;50.20;;;;;;5036964;28;20483;-67
2021/06/13 09:53:34;;;;;;;4.87;2.87;;;34.50;48.30;;;;;;5006841;28;20414;-67
2021/06/13 09:56:04;;;;;;;3.50;3.30;;;34.60;48.30;;;;;;5016101;28;20455;-64
2021/06/13 09:58:30;;;;;;;3.90;3.60;;;34.50;50.00;;;;;;5016417;28;20963;-67
2021/06/13 10:01:09;;;;;;;3.20;3.00;;;33.60;49.30;;;;;;5016416;28;20409;-68
2021/06/13 10:03:37;;;;;;;2.73;2.63;;;33.40;50.00;;;;;;4999465;28;20397;-68
2021/06/13 10:06:05;;;;;;;2.97;2.77;;;33.20;50.50;;;;;;5016097;28;20398;-67
2021/06/13 10:08:31;;;;;;;3.20;2.90;;;32.90;50.90;;;;;;5028702;28;20436;-66
2021/06/13 10:11:00;;;;;;;3.23;3.03;;;32.70;50.70;;;;;;5035513;28;20980;-67
2021/06/13 10:13:50;;;;;;;4.20;3.80;;;32.80;50.60;;;;;;5036171;28;20413;-66
2021/06/13 10:16:30;;;;;;;3.20;3.00;;;33.30;50.20;;;;;;5035516;28;20412;-68
2021/06/13 10:19:17;;;;;;;2.80;2.60;;;32.90;52.10;;;;;;5036321;28;20751;-67
2021/06/13 10:21:55;;;;;;;3.60;3.27;;;32.40;52.00;;;;;;5035867;28;20467;-67
2021/06/13 10:24:26;;;;;;;4.60;3.00;;;32.00;51.70;;;;;;5018272;28;20379;-68
2021/06/13 10:26:55;;;;;;;3.30;3.10;;;31.90;53.10;;;;;;5035583;28;20568;-67
2021/06/13 10:29:23;;;;;;;3.20;2.90;;;31.50;52.70;;;;;;5036244;28;21013;-69
2021/06/13 10:31:51;;;;;;;3.10;2.80;;;31.50;51.30;;;;;;5035979;28;20719;-67
2021/06/13 10:34:19;;;;;;;2.83;2.63;;;31.60;51.00;;;;;;5018489;28;20401;-67
2021/06/13 10:36:45;;;;;;;3.17;2.87;;;31.30;52.70;;;;;;5006627;28;20503;-66
2021/06/13 10:39:24;;;;;;;7.60;2.40;;;31.50;54.10;;;;;;5015572;28;20507;-68
2021/06/13 10:41:50;;;;;;;2.57;2.47;;;32.00;53.90;;;;;;5015852;28;20787;-67
2021/06/13 10:44:18;;;;;;;2.50;2.30;;;32.10;53.30;;;;;;5015872;28;20950;-68
2021/06/13 10:46:52;;;;;;;2.60;2.40;;;32.00;53.20;;;;;;5015209;28;20383;-67
2021/06/13 10:49:29;;;;;;;2.50;2.40;;;31.80;52.30;;;;;;5015820;28;20443;-66
2021/06/13 10:52:15;;;;;;;2.17;2.07;;;31.30;51.30;;;;;;5028543;28;20471;-66
2021/06/13 10:54:53;;;;;;;2.40;2.30;;;30.40;49.10;;;;;;5035521;28;20405;-66
2021/06/13 10:57:19;;;;;;;2.60;2.23;;;30.10;49.70;;;;;;5034750;28;20431;-67
2021/06/13 10:59:50;;;;;;;2.53;2.10;;;30.00;52.10;;;;;;5035318;28;20543;-67
2021/06/13 11:02:19;;;;;;;2.60;2.10;;;29.80;51.40;;;;;;5035506;28;20175;-67
2021/06/13 11:04:56;;;;;;;2.00;1.90;;;29.70;51.50;;;;;;5028027;28;20392;-67
2021/06/13 11:07:30;;;;;;;1.77;1.67;;;29.80;50.80;;;;;;5014711;28;20531;-66
2021/06/13 11:10:13;;;;;;;2.13;2.03;;;29.90;50.90;;;;;;5015557;28;20750;-66
2021/06/13 11:12:49;;;;;;;2.30;1.77;;;29.80;51.20;;;;;;5015175;28;20441;-66
2021/06/13 11:15:26;;;;;;;1.97;1.87;;;29.30;50.80;;;;;;4998126;28;20470;-66
2021/06/13 11:17:59;;;;;;;2.20;2.00;;;28.50;52.20;;;;;;5034329;28;20455;-66
2021/06/13 11:20:28;;;;;;;1.80;1.70;;;27.50;54.70;;;;;;5034694;28;20380;-67
2021/06/13 11:22:59;;;;;;;2.10;2.00;;;26.70;53.50;;;;;;5033828;28;20883;-67
2021/06/13 11:25:26;;;;;;;1.70;1.60;;;26.10;55.70;;;;;;5034972;28;20412;-66
2021/06/13 11:28:10;;;;;;;2.00;1.90;;;25.50;54.70;;;;;;5010035;28;20444;-67
2021/06/13 11:30:41;;;;;;;2.37;2.20;;;25.10;57.40;;;;;;5014958;28;20406;-66
2021/06/13 11:33:07;;;;;;;1.90;1.80;;;24.80;59.00;;;;;;5015059;28;20904;-66
2021/06/13 11:35:35;;;;;;;2.87;2.57;;;24.60;56.50;;;;;;5014458;28;20552;-65
2021/06/13 11:38:10;;;;;;;2.80;2.60;;;24.30;56.70;;;;;;5014523;28;20449;-66
2021/06/13 11:40:37;;;;;;;2.10;1.97;;;24.00;57.50;;;;;;4997009;28;20425;-66
2021/06/13 11:43:14;;;;;;;2.40;2.20;;;23.80;63.20;;;;;;5014689;28;20412;-68
2021/06/13 11:46:05;;;;;;;2.30;1.83;;;23.70;60.40;;;;;;5014365;28;20922;-65
2021/06/13 11:48:33;;;;;;;1.60;1.50;;;23.60;58.70;;;;;;5014495;28;20448;-67
2021/06/13 11:51:00;;;;;;;2.03;1.93;;;23.50;61.90;;;;;;5014891;28;20463;-66
2021/06/13 11:53:47;;;;;;;2.10;1.90;;;23.40;58.10;;;;;;5014176;28;20422;-67
2021/06/13 11:59:03;;;;;;;2.00;1.90;;;23.50;62.50;;;;;;5034168;28;21033;-67
2021/06/13 12:01:30;;;;;;;2.03;1.93;;;23.60;61.00;;;;;;5016522;28;20382;-67
2021/06/13 12:03:57;;;;;;;3.00;2.10;;;23.60;59.80;;;;;;5033954;28;20445;-67
2021/06/13 12:06:22;;;;;;;2.20;2.00;;;23.60;61.30;;;;;;5022605;28;20439;-66
2021/06/13 12:08:50;;;;;;;2.23;2.13;;;23.50;62.00;;;;;;5014153;28;20420;-66
2021/06/13 12:11:46;;;;;;;1.97;1.87;;;23.40;62.50;;;;;;4996446;28;20398;-66
2021/06/13 12:14:15;;;;;;;2.10;2.00;;;23.40;61.80;;;;;;5013549;28;20900;-67
2021/06/13 12:16:41;;;;;;;2.00;1.90;;;23.40;61.30;;;;;;5013722;28;20744;-66
2021/06/13 12:19:07;;;;;;;2.50;2.30;;;23.40;61.60;;;;;;5014368;28;20468;-66
2021/06/13 12:21:33;;;;;;;1.80;1.70;;;23.30;63.20;;;;;;5027976;28;20567;-66
2021/06/13 12:24:34;;;;;;;2.50;2.30;;;23.30;60.80;;;;;;5033945;28;20401;-66
2021/06/13 12:27:24;;;;;;;1.87;1.77;;;23.20;60.50;;;;;;5017871;28;20225;-67
2021/06/13 12:29:50;;;;;;;1.40;1.30;;;23.10;59.90;;;;;;5020502;28;20454;-65
2021/06/13 12:32:17;;;;;;;1.30;1.30;;;23.20;57.60;;;;;;5031044;28;20918;-67
2021/06/13 12:34:45;;;;;;;1.50;1.40;;;23.20;56.80;;;;;;5033654;28;20411;-66
2021/06/13 12:37:17;;;;;;;1.57;1.47;;;23.30;57.70;;;;;;5015189;28;20456;-66
2021/06/13 12:39:57;;;;;;;2.00;1.90;;;23.40;55.90;;;;;;5033371;28;20421;-66
2021/06/13 12:42:24;;;;;;;2.37;1.93;;;23.30;57.50;;;;;;5015982;28;20400;-67
2021/06/13 12:44:59;;;;;;;1.57;1.50;;;23.30;59.10;;;;;;5018422;28;20425;-67
2021/06/13 12:47:25;;;;;;;1.83;1.67;;;23.40;59.40;;;;;;5013268;28;20429;-66
2021/06/13 12:49:52;;;;;;;1.80;1.70;;;23.40;60.50;;;;;;4995998;28;20412;-67
2021/06/13 12:52:19;;;;;;;2.87;1.93;;;23.50;59.90;;;;;;5020349;28;20395;-67
2021/06/13 12:54:57;;;;;;;2.00;1.60;;;23.60;60.80;;;;;;5033230;28;20402;-68
2021/06/13 12:57:23;;;;;;;6.43;1.60;;;23.70;59.40;;;;;;5032813;28;20823;-68
2021/06/13 12:59:49;;;;;;;2.30;1.60;;;23.70;57.90;;;;;;5033398;28;20398;-67
2021/06/13 13:02:15;;;;;;;4.00;2.00;;;23.70;59.40;;;;;;5033272;28;20400;-67
2021/06/13 13:04:51;;;;;;;1.67;1.57;;;23.70;55.00;;;;;;5033412;28;20402;-68